TN18 weather

Richardson Strip
Eads, Tennessee, United States

Public forecast

Using degrees Fahrenheit for public forecast. Weather courtesy of forecast.io.

Closest aviation weather report (METAR) to Richardson Strip

Closest report is Millington-Memphis Airport, 13.5 nm (25.1 km) NW. Retrieved 2019/10/16 03:50 UTC (30 minutes ago):

KNQA 160350Z 20004KT OVC010 20/19 A2987

Closest aviation forecast (TAF) to Richardson Strip

Closest forecast is Memphis International Airport, 18.1 nm (33.5 km) WSW. Retrieved 2019-10-16 04:00 UTC (20 minutes ago):

TAF COR KMEM 160359Z 1604/1706 21006KT P6SM VCSH SCT006 OVC011 TEMPO 1604/1605 BKN006 FM160500 35012G20KT P6SM VCSH BKN025 BKN050 FM161200 36012KT P6SM SKC FM162100 33007KT P6SM SKC